sensor_id;sensor_type;location;lat;lon;timestamp;temperature;humidity
19214;DHT22;9741;51.020;5.304;2022-10-30T00:00:04;15.80;63.70
19214;DHT22;9741;51.020;5.304;2022-10-30T00:02:31;15.80;63.70
19214;DHT22;9741;51.020;5.304;2022-10-30T00:04:58;15.70;63.70
19214;DHT22;9741;51.020;5.304;2022-10-30T00:07:25;15.70;63.80
19214;DHT22;9741;51.020;5.304;2022-10-30T00:09:52;15.60;63.80
19214;DHT22;9741;51.020;5.304;2022-10-30T00:12:19;15.50;63.80
19214;DHT22;9741;51.020;5.304;2022-10-30T00:14:47;15.50;63.80
19214;DHT22;9741;51.020;5.304;2022-10-30T00:17:14;15.50;63.90
19214;DHT22;9741;51.020;5.304;2022-10-30T00:19:41;15.40;64.40
19214;DHT22;9741;51.020;5.304;2022-10-30T00:22:09;15.40;63.90
19214;DHT22;9741;51.020;5.304;2022-10-30T00:24:36;15.30;63.90
19214;DHT22;9741;51.020;5.304;2022-10-30T00:27:03;15.30;63.90
19214;DHT22;9741;51.020;5.304;2022-10-30T00:29:30;15.20;63.90
19214;DHT22;9741;51.020;5.304;2022-10-30T00:31:58;15.20;64.00
19214;DHT22;9741;51.020;5.304;2022-10-30T00:34:25;15.10;64.00
19214;DHT22;9741;51.020;5.304;2022-10-30T00:36:52;15.10;64.00
19214;DHT22;9741;51.020;5.304;2022-10-30T00:39:19;15.00;64.00
19214;DHT22;9741;51.020;5.304;2022-10-30T00:41:46;15.00;64.00
19214;DHT22;9741;51.020;5.304;2022-10-30T00:44:35;14.90;64.00
19214;DHT22;9741;51.020;5.304;2022-10-30T00:47:06;14.90;64.00
19214;DHT22;9741;51.020;5.304;2022-10-30T00:49:38;14.80;64.10
19214;DHT22;9741;51.020;5.304;2022-10-30T00:52:08;14.80;64.10
19214;DHT22;9741;51.020;5.304;2022-10-30T00:54:36;14.70;64.10
19214;DHT22;9741;51.020;5.304;2022-10-30T00:57:04;14.70;64.20
19214;DHT22;9741;51.020;5.304;2022-10-30T00:59:34;14.70;64.20
19214;DHT22;9741;51.020;5.304;2022-10-30T01:02:04;14.60;64.20
19214;DHT22;9741;51.020;5.304;2022-10-30T01:04:35;14.50;64.10
19214;DHT22;9741;51.020;5.304;2022-10-30T01:07:06;14.50;64.20
19214;DHT22;9741;51.020;5.304;2022-10-30T01:09:35;14.50;64.30
19214;DHT22;9741;51.020;5.304;2022-10-30T01:12:03;14.40;64.20
19214;DHT22;9741;51.020;5.304;2022-10-30T01:14:30;14.40;64.20
19214;DHT22;9741;51.020;5.304;2022-10-30T01:17:31;14.40;64.20
19214;DHT22;9741;51.020;5.304;2022-10-30T01:20:13;14.40;64.30
19214;DHT22;9741;51.020;5.304;2022-10-30T01:22:53;14.30;64.30
19214;DHT22;9741;51.020;5.304;2022-10-30T01:25:37;14.30;64.40
19214;DHT22;9741;51.020;5.304;2022-10-30T01:28:17;14.20;64.40
19214;DHT22;9741;51.020;5.304;2022-10-30T01:31:01;14.20;64.40
19214;DHT22;9741;51.020;5.304;2022-10-30T01:33:39;14.20;64.40
19214;DHT22;9741;51.020;5.304;2022-10-30T01:36:13;14.10;64.40
19214;DHT22;9741;51.020;5.304;2022-10-30T01:38:48;14.10;64.50
19214;DHT22;9741;51.020;5.304;2022-10-30T01:41:17;14.00;64.50
19214;DHT22;9741;51.020;5.304;2022-10-30T01:43:46;14.00;64.50
19214;DHT22;9741;51.020;5.304;2022-10-30T01:46:27;14.00;64.60
19214;DHT22;9741;51.020;5.304;2022-10-30T01:49:30;14.00;64.60
19214;DHT22;9741;51.020;5.304;2022-10-30T01:52:04;13.90;64.60
19214;DHT22;9741;51.020;5.304;2022-10-30T01:54:36;13.90;64.70
19214;DHT22;9741;51.020;5.304;2022-10-30T01:57:10;13.90;64.70
19214;DHT22;9741;51.020;5.304;2022-10-30T01:59:41;13.80;64.70
19214;DHT22;9741;51.020;5.304;2022-10-30T02:02:10;13.80;64.70
19214;DHT22;9741;51.020;5.304;2022-10-30T02:04:40;13.80;64.70
19214;DHT22;9741;51.020;5.304;2022-10-30T02:07:07;13.70;64.70
19214;DHT22;9741;51.020;5.304;2022-10-30T02:09:36;13.70;64.70
19214;DHT22;9741;51.020;5.304;2022-10-30T02:12:03;13.70;64.80
19214;DHT22;9741;51.020;5.304;2022-10-30T02:14:34;13.70;64.80
19214;DHT22;9741;51.020;5.304;2022-10-30T02:17:03;13.70;64.80
19214;DHT22;9741;51.020;5.304;2022-10-30T02:19:31;13.70;64.90
19214;DHT22;9741;51.020;5.304;2022-10-30T02:21:59;13.70;64.90
19214;DHT22;9741;51.020;5.304;2022-10-30T02:24:27;13.70;65.00
19214;DHT22;9741;51.020;5.304;2022-10-30T02:26:55;13.70;64.90
19214;DHT22;9741;51.020;5.304;2022-10-30T02:29:22;13.70;64.90
19214;DHT22;9741;51.020;5.304;2022-10-30T02:31:49;13.60;64.90
19214;DHT22;9741;51.020;5.304;2022-10-30T02:34:16;13.60;64.90
19214;DHT22;9741;51.020;5.304;2022-10-30T02:36:43;13.60;65.00
19214;DHT22;9741;51.020;5.304;2022-10-30T02:39:11;13.60;65.00
19214;DHT22;9741;51.020;5.304;2022-10-30T02:41:38;13.60;65.00
19214;DHT22;9741;51.020;5.304;2022-10-30T02:44:05;13.60;65.10
19214;DHT22;9741;51.020;5.304;2022-10-30T02:46:33;13.50;65.00
19214;DHT22;9741;51.020;5.304;2022-10-30T02:49:00;13.50;65.10
19214;DHT22;9741;51.020;5.304;2022-10-30T02:51:27;13.50;65.20
19214;DHT22;9741;51.020;5.304;2022-10-30T02:53:56;13.50;65.10
19214;DHT22;9741;51.020;5.304;2022-10-30T02:56:25;13.40;65.10
19214;DHT22;9741;51.020;5.304;2022-10-30T02:58:53;13.40;65.10
19214;DHT22;9741;51.020;5.304;2022-10-30T03:01:20;13.40;65.10
19214;DHT22;9741;51.020;5.304;2022-10-30T03:03:48;13.40;65.10
19214;DHT22;9741;51.020;5.304;2022-10-30T03:06:16;13.40;65.20
19214;DHT22;9741;51.020;5.304;2022-10-30T03:08:43;13.40;65.20
19214;DHT22;9741;51.020;5.304;2022-10-30T03:11:12;13.50;65.40
19214;DHT22;9741;51.020;5.304;2022-10-30T03:13:46;13.50;65.40
19214;DHT22;9741;51.020;5.304;2022-10-30T03:16:17;13.50;65.30
19214;DHT22;9741;51.020;5.304;2022-10-30T03:18:45;13.50;65.40
19214;DHT22;9741;51.020;5.304;2022-10-30T03:21:15;13.50;65.40
19214;DHT22;9741;51.020;5.304;2022-10-30T03:23:43;13.50;65.30
19214;DHT22;9741;51.020;5.304;2022-10-30T03:26:10;13.50;65.30
19214;DHT22;9741;51.020;5.304;2022-10-30T03:28:37;13.50;65.30
19214;DHT22;9741;51.020;5.304;2022-10-30T03:31:07;13.50;65.40
19214;DHT22;9741;51.020;5.304;2022-10-30T03:33:35;13.50;65.40
19214;DHT22;9741;51.020;5.304;2022-10-30T03:36:03;13.50;65.40
19214;DHT22;9741;51.020;5.304;2022-10-30T03:38:30;13.50;65.40
19214;DHT22;9741;51.020;5.304;2022-10-30T03:40:58;13.50;65.40
19214;DHT22;9741;51.020;5.304;2022-10-30T03:43:25;13.50;65.40
19214;DHT22;9741;51.020;5.304;2022-10-30T03:45:54;13.50;65.40
19214;DHT22;9741;51.020;5.304;2022-10-30T03:48:28;13.50;65.40
19214;DHT22;9741;51.020;5.304;2022-10-30T03:50:58;13.50;65.40
19214;DHT22;9741;51.020;5.304;2022-10-30T03:53:26;13.50;65.40
19214;DHT22;9741;51.020;5.304;2022-10-30T03:55:56;13.50;65.40
19214;DHT22;9741;51.020;5.304;2022-10-30T03:58:24;13.60;65.50
19214;DHT22;9741;51.020;5.304;2022-10-30T04:00:51;13.60;65.50
19214;DHT22;9741;51.020;5.304;2022-10-30T04:03:18;13.60;65.50
19214;DHT22;9741;51.020;5.304;2022-10-30T04:05:46;13.60;65.50
19214;DHT22;9741;51.020;5.304;2022-10-30T04:08:15;13.60;65.50
19214;DHT22;9741;51.020;5.304;2022-10-30T04:10:44;13.50;65.40
19214;DHT22;9741;51.020;5.304;2022-10-30T04:13:13;13.50;65.40
19214;DHT22;9741;51.020;5.304;2022-10-30T04:15:41;13.50;65.40
19214;DHT22;9741;51.020;5.304;2022-10-30T04:18:10;13.50;65.40
19214;DHT22;9741;51.020;5.304;2022-10-30T04:20:37;13.50;65.40
19214;DHT22;9741;51.020;5.304;2022-10-30T04:23:07;13.40;65.40
19214;DHT22;9741;51.020;5.304;2022-10-30T04:25:36;13.40;65.50
19214;DHT22;9741;51.020;5.304;2022-10-30T04:28:03;13.40;65.50
19214;DHT22;9741;51.020;5.304;2022-10-30T04:30:30;13.30;65.50
19214;DHT22;9741;51.020;5.304;2022-10-30T04:33:01;13.30;65.50
19214;DHT22;9741;51.020;5.304;2022-10-30T04:35:30;13.30;65.60
19214;DHT22;9741;51.020;5.304;2022-10-30T04:37:59;13.30;65.60
19214;DHT22;9741;51.020;5.304;2022-10-30T04:40:29;13.30;65.60
19214;DHT22;9741;51.020;5.304;2022-10-30T04:42:56;13.30;65.60
19214;DHT22;9741;51.020;5.304;2022-10-30T04:45:24;13.30;65.70
19214;DHT22;9741;51.020;5.304;2022-10-30T04:47:51;13.30;65.60
19214;DHT22;9741;51.020;5.304;2022-10-30T04:50:18;13.30;65.60
19214;DHT22;9741;51.020;5.304;2022-10-30T04:52:45;13.30;65.60
19214;DHT22;9741;51.020;5.304;2022-10-30T04:55:12;13.30;65.60
19214;DHT22;9741;51.020;5.304;2022-10-30T04:57:40;13.20;65.50
19214;DHT22;9741;51.020;5.304;2022-10-30T05:00:09;13.30;65.60
19214;DHT22;9741;51.020;5.304;2022-10-30T05:02:36;13.20;65.50
19214;DHT22;9741;51.020;5.304;2022-10-30T05:05:04;13.20;65.60
19214;DHT22;9741;51.020;5.304;2022-10-30T05:07:31;13.20;65.60
19214;DHT22;9741;51.020;5.304;2022-10-30T05:09:58;13.20;65.60
19214;DHT22;9741;51.020;5.304;2022-10-30T05:12:25;13.20;65.60
19214;DHT22;9741;51.020;5.304;2022-10-30T05:14:53;13.20;65.60
19214;DHT22;9741;51.020;5.304;2022-10-30T05:17:20;13.20;65.60
19214;DHT22;9741;51.020;5.304;2022-10-30T05:19:47;13.10;65.50
19214;DHT22;9741;51.020;5.304;2022-10-30T05:22:14;13.10;66.00
19214;DHT22;9741;51.020;5.304;2022-10-30T05:24:41;13.00;65.50
19214;DHT22;9741;51.020;5.304;2022-10-30T05:27:08;13.00;65.50
19214;DHT22;9741;51.020;5.304;2022-10-30T05:29:35;13.00;65.50
19214;DHT22;9741;51.020;5.304;2022-10-30T05:32:04;13.00;65.60
19214;DHT22;9741;51.020;5.304;2022-10-30T05:34:31;12.90;65.50
19214;DHT22;9741;51.020;5.304;2022-10-30T05:36:58;12.90;65.50
19214;DHT22;9741;51.020;5.304;2022-10-30T05:39:26;12.80;65.50
19214;DHT22;9741;51.020;5.304;2022-10-30T05:41:53;12.80;65.50
19214;DHT22;9741;51.020;5.304;2022-10-30T05:44:20;12.80;65.60
19214;DHT22;9741;51.020;5.304;2022-10-30T05:46:47;12.70;65.60
19214;DHT22;9741;51.020;5.304;2022-10-30T05:49:15;12.70;65.60
19214;DHT22;9741;51.020;5.304;2022-10-30T05:51:43;12.70;65.60
19214;DHT22;9741;51.020;5.304;2022-10-30T05:54:10;12.60;65.60
19214;DHT22;9741;51.020;5.304;2022-10-30T05:56:37;12.60;65.70
19214;DHT22;9741;51.020;5.304;2022-10-30T05:59:04;12.60;65.80
19214;DHT22;9741;51.020;5.304;2022-10-30T06:01:31;12.60;65.80
19214;DHT22;9741;51.020;5.304;2022-10-30T06:03:58;12.60;65.90
19214;DHT22;9741;51.020;5.304;2022-10-30T06:06:26;12.60;65.90
19214;DHT22;9741;51.020;5.304;2022-10-30T06:08:53;12.50;65.70
19214;DHT22;9741;51.020;5.304;2022-10-30T06:11:20;12.40;65.70
19214;DHT22;9741;51.020;5.304;2022-10-30T06:13:47;12.40;65.80
19214;DHT22;9741;51.020;5.304;2022-10-30T06:16:14;12.40;65.80
19214;DHT22;9741;51.020;5.304;2022-10-30T06:18:41;12.40;65.90
19214;DHT22;9741;51.020;5.304;2022-10-30T06:21:08;12.30;65.80
19214;DHT22;9741;51.020;5.304;2022-10-30T06:23:36;12.30;65.80
19214;DHT22;9741;51.020;5.304;2022-10-30T06:26:04;12.30;65.80
19214;DHT22;9741;51.020;5.304;2022-10-30T06:28:31;12.30;65.90
19214;DHT22;9741;51.020;5.304;2022-10-30T06:30:57;12.20;65.80
19214;DHT22;9741;51.020;5.304;2022-10-30T06:33:24;12.20;65.80
19214;DHT22;9741;51.020;5.304;2022-10-30T06:35:51;12.20;65.80
19214;DHT22;9741;51.020;5.304;2022-10-30T06:38:18;12.20;65.90
19214;DHT22;9741;51.020;5.304;2022-10-30T06:40:47;12.20;65.80
19214;DHT22;9741;51.020;5.304;2022-10-30T06:43:14;12.10;65.80
19214;DHT22;9741;51.020;5.304;2022-10-30T06:45:41;12.10;65.90
19214;DHT22;9741;51.020;5.304;2022-10-30T06:48:08;12.10;65.90
19214;DHT22;9741;51.020;5.304;2022-10-30T06:50:35;12.10;66.40
19214;DHT22;9741;51.020;5.304;2022-10-30T06:53:02;12.10;65.90
19214;DHT22;9741;51.020;5.304;2022-10-30T06:55:29;12.20;66.00
19214;DHT22;9741;51.020;5.304;2022-10-30T06:57:57;12.10;65.90
19214;DHT22;9741;51.020;5.304;2022-10-30T07:00:24;12.20;66.00
19214;DHT22;9741;51.020;5.304;2022-10-30T07:02:58;12.20;66.00
19214;DHT22;9741;51.020;5.304;2022-10-30T07:05:26;12.20;66.10
19214;DHT22;9741;51.020;5.304;2022-10-30T07:07:55;12.20;66.10
19214;DHT22;9741;51.020;5.304;2022-10-30T07:10:22;12.30;66.20
19214;DHT22;9741;51.020;5.304;2022-10-30T07:12:53;12.30;66.10
19214;DHT22;9741;51.020;5.304;2022-10-30T07:15:21;12.30;66.00
19214;DHT22;9741;51.020;5.304;2022-10-30T07:17:53;12.40;66.10
19214;DHT22;9741;51.020;5.304;2022-10-30T07:20:21;12.40;66.10
19214;DHT22;9741;51.020;5.304;2022-10-30T07:22:48;12.40;66.10
19214;DHT22;9741;51.020;5.304;2022-10-30T07:25:15;12.50;66.10
19214;DHT22;9741;51.020;5.304;2022-10-30T07:27:43;12.60;66.20
19214;DHT22;9741;51.020;5.304;2022-10-30T07:30:11;12.60;66.20
19214;DHT22;9741;51.020;5.304;2022-10-30T07:32:40;12.60;66.10
19214;DHT22;9741;51.020;5.304;2022-10-30T07:35:08;12.70;66.20
19214;DHT22;9741;51.020;5.304;2022-10-30T07:37:36;12.70;66.20
19214;DHT22;9741;51.020;5.304;2022-10-30T07:40:05;12.80;66.30
19214;DHT22;9741;51.020;5.304;2022-10-30T07:42:32;12.90;66.30
19214;DHT22;9741;51.020;5.304;2022-10-30T07:44:59;12.90;66.30
19214;DHT22;9741;51.020;5.304;2022-10-30T07:47:26;13.00;66.40
19214;DHT22;9741;51.020;5.304;2022-10-30T07:49:56;13.00;66.40
19214;DHT22;9741;51.020;5.304;2022-10-30T07:52:23;13.10;66.40
19214;DHT22;9741;51.020;5.304;2022-10-30T07:54:50;13.20;66.50
19214;DHT22;9741;51.020;5.304;2022-10-30T07:57:17;13.30;66.50
19214;DHT22;9741;51.020;5.304;2022-10-30T07:59:44;13.40;66.50
19214;DHT22;9741;51.020;5.304;2022-10-30T08:02:13;13.60;66.70
19214;DHT22;9741;51.020;5.304;2022-10-30T08:04:42;13.70;66.70
19214;DHT22;9741;51.020;5.304;2022-10-30T08:07:17;13.80;66.80
19214;DHT22;9741;51.020;5.304;2022-10-30T08:09:47;13.90;66.90
19214;DHT22;9741;51.020;5.304;2022-10-30T08:12:17;14.00;66.90
19214;DHT22;9741;51.020;5.304;2022-10-30T08:14:44;14.20;67.00
19214;DHT22;9741;51.020;5.304;2022-10-30T08:17:11;14.30;67.10
19214;DHT22;9741;51.020;5.304;2022-10-30T08:19:38;14.50;67.20
19214;DHT22;9741;51.020;5.304;2022-10-30T08:22:05;14.70;67.20
19214;DHT22;9741;51.020;5.304;2022-10-30T08:24:36;14.80;67.30
19214;DHT22;9741;51.020;5.304;2022-10-30T08:27:04;15.00;67.30
19214;DHT22;9741;51.020;5.304;2022-10-30T08:29:32;15.10;67.20
19214;DHT22;9741;51.020;5.304;2022-10-30T08:32:00;15.30;67.20
19214;DHT22;9741;51.020;5.304;2022-10-30T08:34:28;15.50;67.30
19214;DHT22;9741;51.020;5.304;2022-10-30T08:36:57;15.60;67.10
19214;DHT22;9741;51.020;5.304;2022-10-30T08:39:25;15.70;67.00
19214;DHT22;9741;51.020;5.304;2022-10-30T08:41:57;15.90;66.90
19214;DHT22;9741;51.020;5.304;2022-10-30T08:44:25;16.00;66.80
19214;DHT22;9741;51.020;5.304;2022-10-30T08:46:53;16.10;66.70
19214;DHT22;9741;51.020;5.304;2022-10-30T08:49:21;16.20;66.60
19214;DHT22;9741;51.020;5.304;2022-10-30T08:51:51;16.30;66.40
19214;DHT22;9741;51.020;5.304;2022-10-30T08:54:19;16.40;66.30
19214;DHT22;9741;51.020;5.304;2022-10-30T08:56:47;16.60;66.30
19214;DHT22;9741;51.020;5.304;2022-10-30T08:59:16;16.70;66.20
19214;DHT22;9741;51.020;5.304;2022-10-30T09:01:44;16.90;66.10
19214;DHT22;9741;51.020;5.304;2022-10-30T09:04:12;17.00;65.90
19214;DHT22;9741;51.020;5.304;2022-10-30T09:06:39;17.10;65.70
19214;DHT22;9741;51.020;5.304;2022-10-30T09:09:06;17.30;65.60
19214;DHT22;9741;51.020;5.304;2022-10-30T09:11:34;17.40;65.50
19214;DHT22;9741;51.020;5.304;2022-10-30T09:14:02;17.50;65.30
19214;DHT22;9741;51.020;5.304;2022-10-30T09:16:34;17.60;65.20
19214;DHT22;9741;51.020;5.304;2022-10-30T09:19:09;17.70;65.00
19214;DHT22;9741;51.020;5.304;2022-10-30T09:21:37;17.90;64.90
19214;DHT22;9741;51.020;5.304;2022-10-30T09:24:05;18.10;64.80
19214;DHT22;9741;51.020;5.304;2022-10-30T09:26:32;18.30;64.60
19214;DHT22;9741;51.020;5.304;2022-10-30T09:29:00;18.50;64.40
19214;DHT22;9741;51.020;5.304;2022-10-30T09:31:28;18.70;64.20
19214;DHT22;9741;51.020;5.304;2022-10-30T09:33:57;18.90;63.90
19214;DHT22;9741;51.020;5.304;2022-10-30T09:36:24;19.10;63.60
19214;DHT22;9741;51.020;5.304;2022-10-30T09:38:52;19.20;63.20
19214;DHT22;9741;51.020;5.304;2022-10-30T09:41:30;19.30;62.90
19214;DHT22;9741;51.020;5.304;2022-10-30T09:44:10;19.40;62.60
19214;DHT22;9741;51.020;5.304;2022-10-30T09:46:49;19.60;62.50
19214;DHT22;9741;51.020;5.304;2022-10-30T09:49:42;19.70;62.40
19214;DHT22;9741;51.020;5.304;2022-10-30T09:52:30;19.90;62.10
19214;DHT22;9741;51.020;5.304;2022-10-30T09:55:27;19.90;62.00
19214;DHT22;9741;51.020;5.304;2022-10-30T09:58:01;20.00;61.80
19214;DHT22;9741;51.020;5.304;2022-10-30T10:00:32;20.00;61.70
19214;DHT22;9741;51.020;5.304;2022-10-30T10:03:12;20.10;61.50
19214;DHT22;9741;51.020;5.304;2022-10-30T10:05:49;20.20;61.40
19214;DHT22;9741;51.020;5.304;2022-10-30T10:08:20;20.20;61.30
19214;DHT22;9741;51.020;5.304;2022-10-30T10:10:51;20.20;61.10
19214;DHT22;9741;51.020;5.304;2022-10-30T10:13:29;20.20;61.00
19214;DHT22;9741;51.020;5.304;2022-10-30T10:16:02;20.20;60.90
19214;DHT22;9741;51.020;5.304;2022-10-30T10:18:37;20.30;61.00
19214;DHT22;9741;51.020;5.304;2022-10-30T10:21:17;20.30;60.80
19214;DHT22;9741;51.020;5.304;2022-10-30T10:23:52;20.30;60.70
19214;DHT22;9741;51.020;5.304;2022-10-30T10:26:29;20.40;60.60
19214;DHT22;9741;51.020;5.304;2022-10-30T10:29:25;20.40;60.50
19214;DHT22;9741;51.020;5.304;2022-10-30T10:32:18;20.50;60.40
19214;DHT22;9741;51.020;5.304;2022-10-30T10:35:03;20.50;60.40
19214;DHT22;9741;51.020;5.304;2022-10-30T10:37:41;20.50;60.40
19214;DHT22;9741;51.020;5.304;2022-10-30T10:40:25;20.60;60.30
19214;DHT22;9741;51.020;5.304;2022-10-30T10:43:10;20.60;60.00
19214;DHT22;9741;51.020;5.304;2022-10-30T10:45:46;20.60;59.90
19214;DHT22;9741;51.020;5.304;2022-10-30T10:48:27;20.70;59.80
19214;DHT22;9741;51.020;5.304;2022-10-30T10:51:02;20.70;59.60
19214;DHT22;9741;51.020;5.304;2022-10-30T10:53:39;20.80;59.50
19214;DHT22;9741;51.020;5.304;2022-10-30T10:56:09;20.90;59.20
19214;DHT22;9741;51.020;5.304;2022-10-30T10:58:43;20.90;59.20
19214;DHT22;9741;51.020;5.304;2022-10-30T11:01:17;20.90;58.80
19214;DHT22;9741;51.020;5.304;2022-10-30T11:03:53;21.00;58.60
19214;DHT22;9741;51.020;5.304;2022-10-30T11:06:26;21.00;58.40
19214;DHT22;9741;51.020;5.304;2022-10-30T11:09:00;21.10;58.20
19214;DHT22;9741;51.020;5.304;2022-10-30T11:11:29;21.20;58.20
19214;DHT22;9741;51.020;5.304;2022-10-30T11:13:57;21.20;58.00
19214;DHT22;9741;51.020;5.304;2022-10-30T11:16:28;21.30;57.90
19214;DHT22;9741;51.020;5.304;2022-10-30T11:18:59;21.30;57.70
19214;DHT22;9741;51.020;5.304;2022-10-30T11:21:31;21.40;57.40
19214;DHT22;9741;51.020;5.304;2022-10-30T11:24:25;21.50;57.20
19214;DHT22;9741;51.020;5.304;2022-10-30T11:26:53;21.50;56.80
19214;DHT22;9741;51.020;5.304;2022-10-30T11:29:23;21.50;56.80
19214;DHT22;9741;51.020;5.304;2022-10-30T11:32:02;21.60;56.70
19214;DHT22;9741;51.020;5.304;2022-10-30T11:34:34;21.60;56.40
19214;DHT22;9741;51.020;5.304;2022-10-30T11:37:02;21.70;56.30
19214;DHT22;9741;51.020;5.304;2022-10-30T11:39:32;21.80;56.40
19214;DHT22;9741;51.020;5.304;2022-10-30T11:42:04;21.80;56.20
19214;DHT22;9741;51.020;5.304;2022-10-30T11:44:34;21.80;56.00
19214;DHT22;9741;51.020;5.304;2022-10-30T11:47:03;21.90;55.90
19214;DHT22;9741;51.020;5.304;2022-10-30T11:49:40;21.90;55.80
19214;DHT22;9741;51.020;5.304;2022-10-30T11:52:11;21.90;55.60
19214;DHT22;9741;51.020;5.304;2022-10-30T11:54:45;21.90;55.60
19214;DHT22;9741;51.020;5.304;2022-10-30T11:57:22;21.90;55.50
19214;DHT22;9741;51.020;5.304;2022-10-30T11:59:53;22.00;55.50
19214;DHT22;9741;51.020;5.304;2022-10-30T12:02:24;22.00;55.50
19214;DHT22;9741;51.020;5.304;2022-10-30T12:04:53;22.10;55.40
19214;DHT22;9741;51.020;5.304;2022-10-30T12:07:26;22.30;55.40
19214;DHT22;9741;51.020;5.304;2022-10-30T12:09:55;22.40;55.20
19214;DHT22;9741;51.020;5.304;2022-10-30T12:12:27;22.60;55.10
19214;DHT22;9741;51.020;5.304;2022-10-30T12:15:08;22.70;54.90
19214;DHT22;9741;51.020;5.304;2022-10-30T12:17:37;22.80;54.70
19214;DHT22;9741;51.020;5.304;2022-10-30T12:20:06;22.90;54.70
19214;DHT22;9741;51.020;5.304;2022-10-30T12:22:34;22.90;54.50
19214;DHT22;9741;51.020;5.304;2022-10-30T12:25:13;23.00;54.50
19214;DHT22;9741;51.020;5.304;2022-10-30T12:27:41;23.10;54.40
19214;DHT22;9741;51.020;5.304;2022-10-30T12:30:14;23.20;54.30
19214;DHT22;9741;51.020;5.304;2022-10-30T12:32:49;23.30;54.20
19214;DHT22;9741;51.020;5.304;2022-10-30T12:35:26;23.40;54.00
19214;DHT22;9741;51.020;5.304;2022-10-30T12:37:55;23.50;53.90
19214;DHT22;9741;51.020;5.304;2022-10-30T12:40:29;23.60;53.90
19214;DHT22;9741;51.020;5.304;2022-10-30T12:43:00;23.60;53.70
19214;DHT22;9741;51.020;5.304;2022-10-30T12:45:33;23.70;53.70
19214;DHT22;9741;51.020;5.304;2022-10-30T12:48:09;23.70;53.40
19214;DHT22;9741;51.020;5.304;2022-10-30T12:50:43;23.70;53.30
19214;DHT22;9741;51.020;5.304;2022-10-30T12:53:24;23.60;53.10
19214;DHT22;9741;51.020;5.304;2022-10-30T12:55:58;23.60;53.10
19214;DHT22;9741;51.020;5.304;2022-10-30T12:58:35;23.50;53.20
19214;DHT22;9741;51.020;5.304;2022-10-30T13:01:11;23.40;53.40
19214;DHT22;9741;51.020;5.304;2022-10-30T13:03:47;23.30;53.50
19214;DHT22;9741;51.020;5.304;2022-10-30T13:06:18;23.30;53.80
19214;DHT22;9741;51.020;5.304;2022-10-30T13:08:54;23.20;53.70
19214;DHT22;9741;51.020;5.304;2022-10-30T13:11:35;23.20;53.70
19214;DHT22;9741;51.020;5.304;2022-10-30T13:14:11;23.20;53.70
19214;DHT22;9741;51.020;5.304;2022-10-30T13:16:38;23.20;53.80
19214;DHT22;9741;51.020;5.304;2022-10-30T13:19:10;23.30;53.90
19214;DHT22;9741;51.020;5.304;2022-10-30T13:21:40;23.40;54.00
19214;DHT22;9741;51.020;5.304;2022-10-30T13:24:11;23.40;54.00
19214;DHT22;9741;51.020;5.304;2022-10-30T13:26:42;23.40;53.90
19214;DHT22;9741;51.020;5.304;2022-10-30T13:29:19;23.40;53.90
19214;DHT22;9741;51.020;5.304;2022-10-30T13:31:57;23.40;53.90
19214;DHT22;9741;51.020;5.304;2022-10-30T13:34:36;23.40;53.90
19214;DHT22;9741;51.020;5.304;2022-10-30T13:37:10;23.40;54.00
19214;DHT22;9741;51.020;5.304;2022-10-30T13:39:44;23.20;53.80
19214;DHT22;9741;51.020;5.304;2022-10-30T13:42:22;23.20;54.00
19214;DHT22;9741;51.020;5.304;2022-10-30T13:45:01;23.20;54.10
19214;DHT22;9741;51.020;5.304;2022-10-30T13:47:38;23.10;54.20
19214;DHT22;9741;51.020;5.304;2022-10-30T13:50:31;23.00;54.30
19214;DHT22;9741;51.020;5.304;2022-10-30T13:53:02;23.00;54.40
19214;DHT22;9741;51.020;5.304;2022-10-30T13:55:32;23.00;54.40
19214;DHT22;9741;51.020;5.304;2022-10-30T13:58:06;22.90;54.30
19214;DHT22;9741;51.020;5.304;2022-10-30T14:00:51;23.00;54.30
19214;DHT22;9741;51.020;5.304;2022-10-30T14:03:40;23.00;54.30
19214;DHT22;9741;51.020;5.304;2022-10-30T14:06:15;22.90;54.10
19214;DHT22;9741;51.020;5.304;2022-10-30T14:08:51;23.00;54.20
19214;DHT22;9741;51.020;5.304;2022-10-30T14:11:20;23.00;54.20
19214;DHT22;9741;51.020;5.304;2022-10-30T14:13:53;23.10;54.30
19214;DHT22;9741;51.020;5.304;2022-10-30T14:16:33;23.20;54.20
19214;DHT22;9741;51.020;5.304;2022-10-30T14:19:01;23.20;54.00
19214;DHT22;9741;51.020;5.304;2022-10-30T14:21:49;23.20;54.00
19214;DHT22;9741;51.020;5.304;2022-10-30T14:24:20;23.20;54.00
19214;DHT22;9741;51.020;5.304;2022-10-30T14:26:49;23.20;54.00
19214;DHT22;9741;51.020;5.304;2022-10-30T14:29:40;23.10;54.00
19214;DHT22;9741;51.020;5.304;2022-10-30T14:35:35;22.90;54.00
19214;DHT22;9741;51.020;5.304;2022-10-30T14:38:22;22.80;54.20
19214;DHT22;9741;51.020;5.304;2022-10-30T14:41:46;22.70;54.30
19214;DHT22;9741;51.020;5.304;2022-10-30T14:44:23;22.60;54.50
19214;DHT22;9741;51.020;5.304;2022-10-30T14:47:01;22.40;54.50
19214;DHT22;9741;51.020;5.304;2022-10-30T14:49:42;22.40;54.70
19214;DHT22;9741;51.020;5.304;2022-10-30T14:52:21;22.20;54.80
19214;DHT22;9741;51.020;5.304;2022-10-30T14:55:24;22.20;54.90
19214;DHT22;9741;51.020;5.304;2022-10-30T14:57:55;22.10;55.00
19214;DHT22;9741;51.020;5.304;2022-10-30T15:00:38;22.00;55.00
19214;DHT22;9741;51.020;5.304;2022-10-30T15:03:12;21.90;55.10
19214;DHT22;9741;51.020;5.304;2022-10-30T15:05:47;21.90;55.20
19214;DHT22;9741;51.020;5.304;2022-10-30T15:08:40;21.90;55.30
19214;DHT22;9741;51.020;5.304;2022-10-30T15:11:29;21.90;55.40
19214;DHT22;9741;51.020;5.304;2022-10-30T15:14:04;21.80;55.30
19214;DHT22;9741;51.020;5.304;2022-10-30T15:16:35;21.80;55.40
19214;DHT22;9741;51.020;5.304;2022-10-30T15:19:06;21.70;55.40
19214;DHT22;9741;51.020;5.304;2022-10-30T15:21:40;21.60;55.50
19214;DHT22;9741;51.020;5.304;2022-10-30T15:24:11;21.60;55.70
19214;DHT22;9741;51.020;5.304;2022-10-30T15:26:40;21.50;55.90
19214;DHT22;9741;51.020;5.304;2022-10-30T15:29:26;21.30;55.90
19214;DHT22;9741;51.020;5.304;2022-10-30T15:32:00;21.20;56.00
19214;DHT22;9741;51.020;5.304;2022-10-30T15:34:31;21.10;56.20
19214;DHT22;9741;51.020;5.304;2022-10-30T15:37:09;21.00;56.40
19214;DHT22;9741;51.020;5.304;2022-10-30T15:39:37;20.80;56.50
19214;DHT22;9741;51.020;5.304;2022-10-30T15:42:04;20.70;56.70
19214;DHT22;9741;51.020;5.304;2022-10-30T15:44:35;20.60;56.80
19214;DHT22;9741;51.020;5.304;2022-10-30T15:47:04;20.50;56.90
19214;DHT22;9741;51.020;5.304;2022-10-30T15:49:41;20.40;56.90
19214;DHT22;9741;51.020;5.304;2022-10-30T15:52:17;20.30;57.00
19214;DHT22;9741;51.020;5.304;2022-10-30T15:54:51;20.20;57.10
19214;DHT22;9741;51.020;5.304;2022-10-30T15:57:25;20.10;57.20
19214;DHT22;9741;51.020;5.304;2022-10-30T15:59:56;20.00;57.20
19214;DHT22;9741;51.020;5.304;2022-10-30T16:02:24;20.00;57.30
19214;DHT22;9741;51.020;5.304;2022-10-30T16:04:53;19.90;57.30
19214;DHT22;9741;51.020;5.304;2022-10-30T16:07:22;19.90;57.50
19214;DHT22;9741;51.020;5.304;2022-10-30T16:09:54;19.80;57.40
19214;DHT22;9741;51.020;5.304;2022-10-30T16:12:23;19.70;57.50
19214;DHT22;9741;51.020;5.304;2022-10-30T16:14:51;19.70;57.60